logo
Search for airport 
image banner adimage banner adimage banner ad
image banner ad

CAV8 - Shawnigan Lake

Located in , Canada

ICAO - CAV8, IATA -

Data provided by Airmate  

General information

Coordinates: N48°37'60" W123°38'0"
Elevation is 380 feet MSL.
Magnetic variation is 16.8928° East
View others Airports in British Columbia

Operational data

Special qualification required
Current time UTC:
Current local time:
Weather at : CYYJ - Victoria Intl ( 15 km )
METAR: CYYJ 241400Z 25002KT 12SM FEW009 FEW014 BKN034 10/10 A2995 RMK SF1SC2SC5 SF TR SLP145
TAF: TAF CYYJ 241140Z 2412/2512 VRB03KT 5SM BR BKN008 TEMPO 2412/2419 P6SM NSW SCT008 PROB30 2412/2419 1SM BR OVC004 FM241900 14012KT P6SM SCT025 SCT080 TEMPO 2419/2501 P6SM -SHRA BKN025 FM250100 10010KT P6SM -RA SCT008 BKN025 TEMPO 2501/2510 4SM -SHRA BR BKN008 FM251000 12012KT P6SM SCT008 BKN025 TEMPO 2510/2512 3SM -SHRA BR BKN008 RMK NXT FCST BY 241800Z
View NOTAMs / SUP AIP / TFR affecting this airport [VIEW]
Communications frequencies: [VIEW]

Runways:

RWY identifierQFULength (ft)Width (ft)SurfaceLDA (ft)
W00WATER

Airport contact information

Address: Canada

Satellite view of CAV8